createdAt,value
2017-07-09T00:00:37.436Z,94348.12
2017-07-09T00:03:05.176Z,94350.25
2017-07-09T00:05:32.872Z,94341.52
2017-07-09T00:08:00.643Z,94340.21
2017-07-09T00:10:28.357Z,94332.89
2017-07-09T00:12:56.062Z,94325.02
2017-07-09T00:15:23.952Z,94328.21
2017-07-09T00:17:51.738Z,94331.93
2017-07-09T00:20:19.426Z,94345.78
2017-07-09T00:22:47.143Z,94348.00
2017-07-09T00:25:14.899Z,94347.08
2017-07-09T00:27:42.611Z,94345.22
2017-07-09T00:30:10.313Z,94345.36
2017-07-09T00:32:38.125Z,94341.52
2017-07-09T00:35:05.839Z,94334.67
2017-07-09T00:37:38.594Z,94341.01
2017-07-09T00:40:06.642Z,94337.30
2017-07-09T00:42:35.750Z,94343.80
2017-07-09T00:45:03.750Z,94344.68
2017-07-09T00:47:31.669Z,94340.73
2017-07-09T00:49:59.690Z,94335.42
2017-07-09T00:52:28.421Z,94336.11
2017-07-09T00:54:57.961Z,94331.93
2017-07-09T00:57:26.092Z,94330.55
2017-07-09T00:59:54.740Z,94330.06
2017-07-09T01:02:23.749Z,94325.17
2017-07-09T01:04:51.762Z,94325.03
2017-07-09T01:07:19.635Z,94324.59
2017-07-09T01:09:47.749Z,94329.24
2017-07-09T01:12:17.166Z,94325.73
2017-07-09T01:14:47.834Z,94327.05
2017-07-09T01:17:18.173Z,94321.11
2017-07-09T01:19:46.195Z,94313.61
2017-07-09T01:22:14.700Z,94319.59
2017-07-09T01:24:44.674Z,94316.26
2017-07-09T01:27:13.497Z,94316.01
2017-07-09T01:29:41.593Z,94311.02
2017-07-09T01:32:11.896Z,94315.91
2017-07-09T01:34:41.090Z,94314.06
2017-07-09T01:37:09.984Z,94314.92
2017-07-09T01:39:38.806Z,94310.38
2017-07-09T01:42:07.151Z,94309.48
2017-07-09T01:44:35.773Z,94307.24
2017-07-09T01:47:03.846Z,94302.55
2017-07-09T01:49:31.803Z,94298.86
2017-07-09T01:52:00.521Z,94299.41
2017-07-09T01:54:28.520Z,94300.17
2017-07-09T01:56:56.662Z,94300.19
2017-07-09T01:59:26.456Z,94303.36
2017-07-09T02:01:54.516Z,94296.90
2017-07-09T02:04:25.881Z,94297.48
2017-07-09T02:06:53.918Z,94296.42
2017-07-09T02:09:21.991Z,94294.49
2017-07-09T02:11:50.023Z,94294.63
2017-07-09T02:14:21.815Z,94296.77
2017-07-09T02:16:52.468Z,94294.50
2017-07-09T02:19:24.645Z,94295.06
2017-07-09T02:21:52.759Z,94290.32
2017-07-09T02:24:20.855Z,94288.34
2017-07-09T02:26:48.807Z,94275.84
2017-07-09T02:29:17.677Z,94277.02
2017-07-09T02:31:46.501Z,94280.45
2017-07-09T02:34:14.454Z,94277.41
2017-07-09T02:36:42.392Z,94271.25
2017-07-09T02:39:11.604Z,94274.39
2017-07-09T02:41:39.586Z,94276.50
2017-07-09T02:44:07.691Z,94273.89
2017-07-09T02:46:37.086Z,94265.97
2017-07-09T02:51:39.327Z,94271.50
2017-07-09T02:54:07.384Z,94269.55
2017-07-09T02:56:35.377Z,94254.41
2017-07-09T02:59:04.492Z,94258.49
2017-07-09T03:01:32.438Z,94257.56
2017-07-09T03:04:00.570Z,94261.52
2017-07-09T03:06:30.614Z,94260.58
2017-07-09T03:09:01.757Z,94266.39
2017-07-09T03:11:29.765Z,94262.16
2017-07-09T03:13:57.819Z,94264.52
2017-07-09T03:16:25.754Z,94264.53
2017-07-09T03:18:53.817Z,94264.27
2017-07-09T03:23:56.332Z,94266.52
2017-07-09T03:26:25.430Z,94261.91
2017-07-09T03:28:55.554Z,94267.69
2017-07-09T03:31:23.660Z,94266.39
2017-07-09T03:33:52.091Z,94266.65
2017-07-09T03:36:20.078Z,94269.53
2017-07-09T03:38:48.127Z,94272.56
2017-07-09T03:41:16.100Z,94272.27
2017-07-09T03:43:44.345Z,94273.98
2017-07-09T03:46:12.199Z,94274.91
2017-07-09T03:48:41.010Z,94260.70
2017-07-09T03:51:09.623Z,94259.16
2017-07-09T03:53:37.677Z,94253.81
2017-07-09T03:56:06.255Z,94263.33
2017-07-09T03:58:34.252Z,94263.75
2017-07-09T04:01:03.178Z,94262.81
2017-07-09T04:03:31.966Z,94263.16
2017-07-09T04:05:59.943Z,94267.02
2017-07-09T04:08:28.002Z,94265.55
2017-07-09T04:10:56.042Z,94267.75
2017-07-09T04:13:24.399Z,94274.38
2017-07-09T04:15:57.011Z,94265.25
2017-07-09T04:18:25.050Z,94269.78
2017-07-09T04:20:53.900Z,94263.75
2017-07-09T04:23:22.638Z,94259.53
2017-07-09T04:25:50.669Z,94257.69
2017-07-09T04:28:19.739Z,94264.50
2017-07-09T04:30:47.836Z,94261.98
2017-07-09T04:33:16.766Z,94272.73
2017-07-09T04:35:44.760Z,94276.34
2017-07-09T04:38:13.370Z,94285.95
2017-07-09T04:40:41.352Z,94282.94
2017-07-09T04:43:09.410Z,94278.61
2017-07-09T04:45:40.692Z,94277.03
2017-07-09T04:48:09.621Z,94278.73
2017-07-09T04:50:40.922Z,94281.38
2017-07-09T04:53:09.886Z,94281.12
2017-07-09T04:55:38.001Z,94280.17
2017-07-09T04:58:07.832Z,94281.50
2017-07-09T05:00:36.060Z,94285.14
2017-07-09T05:03:04.129Z,94279.89
2017-07-09T05:05:32.129Z,94283.61
2017-07-09T05:08:03.054Z,94279.22
2017-07-09T05:10:33.951Z,94277.94
2017-07-09T05:13:02.133Z,94272.88
2017-07-09T05:15:30.106Z,94273.70
2017-07-09T05:17:58.233Z,94271.42
2017-07-09T05:20:27.134Z,94263.63
2017-07-09T05:22:56.918Z,94273.53
2017-07-09T05:25:26.123Z,94268.39
2017-07-09T05:27:54.159Z,94270.48
2017-07-09T05:30:22.120Z,94265.45
2017-07-09T05:32:50.495Z,94262.63
2017-07-09T05:35:18.471Z,94267.41
2017-07-09T05:37:46.615Z,94264.25
2017-07-09T05:40:14.672Z,94253.53
2017-07-09T05:42:42.620Z,94253.91
2017-07-09T05:45:10.643Z,94249.12
2017-07-09T05:47:39.351Z,94261.92
2017-07-09T05:50:07.386Z,94260.31
2017-07-09T05:52:35.252Z,94262.35
2017-07-09T05:55:03.190Z,94261.64
2017-07-09T05:57:31.109Z,94266.29
2017-07-09T05:59:59.939Z,94260.73
2017-07-09T06:02:28.684Z,94262.31
2017-07-09T06:04:56.650Z,94263.22
2017-07-09T06:07:26.193Z,94267.11
2017-07-09T06:09:57.126Z,94268.36
2017-07-09T06:12:25.120Z,94265.54
2017-07-09T06:14:53.061Z,94260.94
2017-07-09T06:17:21.114Z,94264.94
2017-07-09T06:19:50.004Z,94260.58
2017-07-09T06:22:19.828Z,94261.72
2017-07-09T06:24:47.859Z,94259.42
2017-07-09T06:29:52.502Z,94264.30
2017-07-09T06:32:22.917Z,94262.92
2017-07-09T06:34:51.827Z,94257.62
2017-07-09T06:37:19.903Z,94253.83
2017-07-09T06:39:48.384Z,94253.18
2017-07-09T06:42:16.282Z,94252.98
2017-07-09T06:44:44.185Z,94253.18
2017-07-09T06:47:12.232Z,94243.75
2017-07-09T06:49:40.301Z,94236.60
2017-07-09T06:52:09.365Z,94237.64
2017-07-09T06:54:37.246Z,94237.03
2017-07-09T06:57:05.287Z,94233.19
2017-07-09T06:59:33.194Z,94223.77
2017-07-09T07:02:01.578Z,94232.85
2017-07-09T07:04:30.420Z,94230.25
2017-07-09T07:06:58.598Z,94237.78
2017-07-09T07:09:27.865Z,94236.06
2017-07-09T07:11:55.891Z,94235.81
2017-07-09T07:14:23.945Z,94232.02
2017-07-09T07:16:52.001Z,94220.46
2017-07-09T07:19:19.950Z,94228.00
2017-07-09T07:21:49.600Z,94228.61
2017-07-09T07:24:19.459Z,94227.23
2017-07-09T07:26:48.269Z,94228.75
2017-07-09T07:29:16.407Z,94233.63
2017-07-09T07:31:45.122Z,94234.41
2017-07-09T07:34:13.173Z,94237.16
2017-07-09T07:36:41.290Z,94238.87
2017-07-09T07:39:09.553Z,94221.94
2017-07-09T07:41:37.596Z,94223.83
2017-07-09T07:44:06.735Z,94230.08
2017-07-09T07:46:34.725Z,94234.23
2017-07-09T07:49:02.767Z,94229.66
2017-07-09T07:51:30.765Z,94220.73
2017-07-09T07:53:58.732Z,94224.73
2017-07-09T07:56:26.630Z,94226.84
2017-07-09T07:58:54.698Z,94221.25
2017-07-09T08:01:22.771Z,94218.83
2017-07-09T08:03:50.645Z,94219.62
2017-07-09T08:06:18.527Z,94215.56
2017-07-09T08:08:46.468Z,94218.24
2017-07-09T08:11:14.385Z,94223.14
2017-07-09T08:13:42.267Z,94221.34
2017-07-09T08:16:10.268Z,94212.62
2017-07-09T08:18:38.110Z,94214.77
2017-07-09T08:21:06.168Z,94220.92
2017-07-09T08:23:34.943Z,94219.55
2017-07-09T08:26:02.945Z,94216.98
2017-07-09T08:28:31.084Z,94219.47
2017-07-09T08:30:59.637Z,94229.13
2017-07-09T08:33:27.733Z,94224.28
2017-07-09T08:35:56.766Z,94232.02
2017-07-09T08:38:24.642Z,94223.84
2017-07-09T08:40:54.243Z,94227.17
2017-07-09T08:43:24.153Z,94222.91
2017-07-09T08:45:52.047Z,94220.33
2017-07-09T08:48:20.241Z,94216.69
2017-07-09T08:50:48.275Z,94218.79
2017-07-09T08:53:17.079Z,94213.55
2017-07-09T08:55:45.119Z,94214.54
2017-07-09T08:58:13.909Z,94207.59
2017-07-09T09:00:42.182Z,94204.48
2017-07-09T09:03:14.310Z,94196.23
2017-07-09T09:05:49.231Z,94200.30
2017-07-09T09:08:23.296Z,94195.34
2017-07-09T09:10:51.726Z,94203.94
2017-07-09T09:13:21.182Z,94200.68
2017-07-09T09:15:49.175Z,94201.59
2017-07-09T09:18:17.147Z,94206.80
2017-07-09T09:20:45.221Z,94204.96
2017-07-09T09:23:16.775Z,94203.97
2017-07-09T09:25:45.267Z,94208.75
2017-07-09T09:28:13.488Z,94205.08
2017-07-09T09:30:42.251Z,94204.38
2017-07-09T09:33:11.385Z,94196.13
2017-07-09T09:35:39.499Z,94193.05
2017-07-09T09:38:07.512Z,94193.59
2017-07-09T09:40:36.166Z,94198.25
2017-07-09T09:43:04.723Z,94198.09
2017-07-09T09:45:34.084Z,94193.78
2017-07-09T09:48:02.097Z,94189.04
2017-07-09T09:50:30.071Z,94186.31
2017-07-09T09:52:58.471Z,94186.22
2017-07-09T09:55:28.724Z,94178.94
2017-07-09T09:57:56.918Z,94171.49
2017-07-09T10:00:24.923Z,94183.02
2017-07-09T10:02:52.830Z,94174.65
2017-07-09T10:05:20.845Z,94182.50
2017-07-09T10:07:48.748Z,94178.27
2017-07-09T10:10:16.887Z,94179.59
2017-07-09T10:12:44.919Z,94173.95
2017-07-09T10:15:13.876Z,94178.22
2017-07-09T10:17:42.661Z,94169.20
2017-07-09T10:20:10.572Z,94179.33
2017-07-09T10:22:38.552Z,94161.84
2017-07-09T10:25:06.495Z,94159.80
2017-07-09T10:27:34.485Z,94161.65
2017-07-09T10:30:02.301Z,94156.09
2017-07-09T10:32:30.216Z,94158.12
2017-07-09T10:34:58.217Z,94154.66
2017-07-09T10:37:26.955Z,94150.83
2017-07-09T10:39:56.028Z,94150.16
2017-07-09T10:42:23.851Z,94143.74
2017-07-09T10:44:51.880Z,94141.06
2017-07-09T10:47:19.844Z,94136.78
2017-07-09T10:49:47.668Z,94133.86
2017-07-09T10:52:16.631Z,94128.73
2017-07-09T10:54:44.557Z,94127.50
2017-07-09T10:57:12.379Z,94117.24
2017-07-09T10:59:40.346Z,94114.11
2017-07-09T11:02:08.150Z,94106.89
2017-07-09T11:04:36.028Z,94103.12
2017-07-09T11:07:04.155Z,94101.06
2017-07-09T11:09:32.104Z,94098.33
2017-07-09T11:12:00.026Z,94095.15
2017-07-09T11:14:28.097Z,94091.11
2017-07-09T11:16:56.004Z,94087.66
2017-07-09T11:19:24.678Z,94096.09
2017-07-09T11:21:52.554Z,94086.27
2017-07-09T11:24:20.507Z,94088.80
2017-07-09T11:26:48.629Z,94085.70
2017-07-09T11:29:16.544Z,94082.98
2017-07-09T11:31:44.572Z,94073.98
2017-07-09T11:34:13.532Z,94069.56
2017-07-09T11:36:42.835Z,94067.56
2017-07-09T11:39:10.857Z,94070.00
2017-07-09T11:41:38.747Z,94073.66
2017-07-09T11:44:06.771Z,94066.73
2017-07-09T11:46:34.594Z,94066.23
2017-07-09T11:49:02.472Z,94067.17
2017-07-09T11:51:30.548Z,94064.47
2017-07-09T11:56:33.447Z,94054.87
2017-07-09T11:59:01.407Z,94048.80
2017-07-09T12:01:29.558Z,94047.13
2017-07-09T12:03:57.550Z,94043.81
2017-07-09T12:06:25.573Z,94044.12
2017-07-09T12:08:53.799Z,94035.06
2017-07-09T12:11:21.731Z,94033.67
2017-07-09T12:13:49.815Z,94032.60
2017-07-09T12:16:17.787Z,94026.81
2017-07-09T12:18:45.791Z,94025.88
2017-07-09T12:21:13.737Z,94022.20
2017-07-09T12:23:43.538Z,94022.31
2017-07-09T12:26:12.816Z,94022.27
2017-07-09T12:28:40.961Z,94021.88
2017-07-09T12:31:09.764Z,94019.55
2017-07-09T12:33:38.183Z,94018.27
2017-07-09T12:36:07.162Z,94018.94
2017-07-09T12:38:35.240Z,94016.89
2017-07-09T12:41:03.234Z,94016.30
2017-07-09T12:43:31.317Z,94013.22
2017-07-09T12:45:59.413Z,94011.81
2017-07-09T12:48:27.695Z,94009.98
2017-07-09T12:50:55.599Z,94010.08
2017-07-09T12:53:24.375Z,94010.01
2017-07-09T12:55:52.459Z,94001.89
2017-07-09T12:58:20.389Z,94003.50
2017-07-09T13:00:48.399Z,93997.86
2017-07-09T13:03:16.395Z,93998.26
2017-07-09T13:08:18.395Z,94001.69
2017-07-09T13:10:46.392Z,94003.41
2017-07-09T13:13:14.546Z,94008.45
2017-07-09T13:15:44.435Z,94004.84
2017-07-09T13:18:12.441Z,94007.45
2017-07-09T13:20:40.303Z,94007.67
2017-07-09T13:23:08.469Z,94001.93
2017-07-09T13:25:36.428Z,93995.74
2017-07-09T13:28:04.391Z,93990.44
2017-07-09T13:30:32.402Z,93998.19
2017-07-09T13:33:01.444Z,93990.29
2017-07-09T13:35:29.332Z,93986.87
2017-07-09T13:37:57.167Z,93986.94
2017-07-09T13:40:25.222Z,93977.89
2017-07-09T13:42:53.285Z,93980.45
2017-07-09T13:45:21.669Z,93976.36
2017-07-09T13:47:49.457Z,93968.95
2017-07-09T13:50:18.741Z,93974.23
2017-07-09T13:52:47.315Z,93973.95
2017-07-09T13:55:15.280Z,93967.70
2017-07-09T13:57:43.252Z,93971.39
2017-07-09T14:00:11.214Z,93960.73
2017-07-09T14:02:39.107Z,93960.08
2017-07-09T14:05:07.024Z,93959.98
2017-07-09T14:07:35.100Z,93956.47
2017-07-09T14:10:03.652Z,93947.79
2017-07-09T14:12:32.039Z,93944.87
2017-07-09T14:14:59.953Z,93942.75
2017-07-09T14:17:27.843Z,93944.75
2017-07-09T14:19:56.401Z,93940.92
2017-07-09T14:22:24.299Z,93934.57
2017-07-09T14:24:52.463Z,93933.00
2017-07-09T14:27:20.365Z,93932.67
2017-07-09T14:29:48.268Z,93923.62
2017-07-09T14:32:16.061Z,93912.82
2017-07-09T14:34:44.009Z,93916.17
2017-07-09T14:37:12.018Z,93912.77
2017-07-09T14:39:39.862Z,93905.47
2017-07-09T14:42:07.734Z,93907.71
2017-07-09T14:44:35.735Z,93906.21
2017-07-09T14:47:03.636Z,93904.20
2017-07-09T14:49:31.629Z,93897.42
2017-07-09T14:51:59.493Z,93889.72
2017-07-09T14:54:27.442Z,93887.87
2017-07-09T14:56:55.447Z,93881.75
2017-07-09T14:59:24.224Z,93878.48
2017-07-09T15:01:52.063Z,93872.96
2017-07-09T15:04:20.091Z,93871.13
2017-07-09T15:06:48.065Z,93872.80
2017-07-09T15:09:16.691Z,93867.66
2017-07-09T15:11:45.061Z,93863.27
2017-07-09T15:14:13.028Z,93862.12
2017-07-09T15:16:42.405Z,93864.98
2017-07-09T15:19:11.337Z,93857.33
2017-07-09T15:21:39.222Z,93859.47
2017-07-09T15:24:07.264Z,93854.98
2017-07-09T15:26:35.249Z,93860.51
2017-07-09T15:29:03.242Z,93848.45
2017-07-09T15:31:31.152Z,93852.65
2017-07-09T15:33:59.187Z,93849.33
2017-07-09T15:36:28.000Z,93845.22
2017-07-09T15:38:56.873Z,93837.52
2017-07-09T15:41:24.919Z,93840.80
2017-07-09T15:43:52.771Z,93837.52
2017-07-09T15:46:20.724Z,93832.14
2017-07-09T15:48:48.988Z,93834.53
2017-07-09T15:51:16.905Z,93831.94
2017-07-09T15:53:44.882Z,93827.06
2017-07-09T15:56:12.882Z,93825.64
2017-07-09T15:58:40.844Z,93820.48
2017-07-09T16:01:08.795Z,93814.48
2017-07-09T16:03:36.806Z,93810.41
2017-07-09T16:06:04.931Z,93811.84
2017-07-09T16:08:33.098Z,93815.90
2017-07-09T16:11:01.065Z,93815.20
2017-07-09T16:13:29.296Z,93812.59
2017-07-09T16:15:57.287Z,93815.20
2017-07-09T16:18:25.126Z,93815.20
2017-07-09T16:20:54.121Z,93820.31
2017-07-09T16:23:22.993Z,93810.08
2017-07-09T16:25:50.915Z,93809.20
2017-07-09T16:28:18.877Z,93811.98
2017-07-09T16:30:47.651Z,93813.58
2017-07-09T16:33:15.676Z,93820.42
2017-07-09T16:35:43.654Z,93827.34
2017-07-09T16:38:12.153Z,93826.16
2017-07-09T16:40:40.101Z,93829.62
2017-07-09T16:43:09.974Z,93822.58
2017-07-09T16:45:41.440Z,93813.27
2017-07-09T16:48:12.229Z,93815.65
2017-07-09T16:50:40.244Z,93818.64
2017-07-09T16:53:08.974Z,93823.92
2017-07-09T16:55:36.903Z,93821.81
2017-07-09T16:58:05.668Z,93820.53
2017-07-09T17:00:33.648Z,93819.45
2017-07-09T17:03:01.834Z,93818.98
2017-07-09T17:05:31.646Z,93831.70
2017-07-09T17:08:00.903Z,93835.73
2017-07-09T17:10:29.005Z,93841.00
2017-07-09T17:12:57.022Z,93843.05
2017-07-09T17:15:25.561Z,93849.78
2017-07-09T17:17:54.981Z,93854.89
2017-07-09T17:20:23.534Z,93864.92
2017-07-09T17:22:51.539Z,93868.73
2017-07-09T17:25:19.980Z,93872.20
2017-07-09T17:27:47.794Z,93866.67
2017-07-09T17:30:15.602Z,93868.07
2017-07-09T17:32:44.032Z,93861.83
2017-07-09T17:35:11.867Z,93864.58
2017-07-09T17:37:41.000Z,93864.08
2017-07-09T17:40:09.029Z,93869.55
2017-07-09T17:42:38.204Z,93877.55
2017-07-09T17:45:06.198Z,93889.47
2017-07-09T17:47:34.408Z,93888.11
2017-07-09T17:50:02.678Z,93892.00
2017-07-09T17:52:30.887Z,93900.95
2017-07-09T17:54:58.870Z,93900.80
2017-07-09T17:57:26.923Z,93905.93
2017-07-09T17:59:55.872Z,93899.83
2017-07-09T18:02:25.382Z,93891.23
2017-07-09T18:04:53.439Z,93881.77
2017-07-09T18:07:21.409Z,93867.95
2017-07-09T18:09:51.365Z,93897.03
2017-07-09T18:12:21.037Z,93948.47
2017-07-09T18:14:49.069Z,93984.74
2017-07-09T18:17:17.833Z,94025.25
2017-07-09T18:19:48.437Z,94127.97
2017-07-09T18:22:18.225Z,94167.67
2017-07-09T18:24:50.005Z,94166.48
2017-07-09T18:27:19.764Z,94160.57
2017-07-09T18:29:55.303Z,94151.50
2017-07-09T18:32:25.914Z,94128.25
2017-07-09T18:34:57.039Z,94108.25
2017-07-09T18:37:29.627Z,94107.71
2017-07-09T18:40:01.051Z,94112.99
2017-07-09T18:42:30.933Z,94114.20
2017-07-09T18:44:59.874Z,94113.25
2017-07-09T18:47:31.142Z,94125.83
2017-07-09T18:50:02.032Z,94135.56
2017-07-09T18:52:31.728Z,94141.05
2017-07-09T18:55:01.186Z,94137.60
2017-07-09T18:57:33.407Z,94132.58
2017-07-09T19:00:03.142Z,94133.13
2017-07-09T19:02:32.118Z,94132.05
2017-07-09T19:05:00.433Z,94144.77
2017-07-09T19:10:13.246Z,94156.89
2017-07-09T19:12:42.889Z,94172.88
2017-07-09T19:15:11.990Z,94200.69
2017-07-09T19:17:41.739Z,94232.16
2017-07-09T19:20:09.788Z,94245.70
2017-07-09T19:22:39.149Z,94244.34
2017-07-09T19:25:10.007Z,94225.69
2017-07-09T19:27:37.738Z,94215.69
2017-07-09T19:30:06.199Z,94202.77
2017-07-09T19:32:35.875Z,94216.11
2017-07-09T19:35:06.570Z,94226.55
2017-07-09T19:37:35.139Z,94246.77
2017-07-09T19:40:03.702Z,94263.75
2017-07-09T19:42:31.761Z,94279.92
2017-07-09T19:44:59.863Z,94287.30
2017-07-09T19:47:28.339Z,94287.89
2017-07-09T19:49:57.253Z,94265.56
2017-07-09T19:52:25.194Z,94248.99
2017-07-09T19:54:53.236Z,94236.13
2017-07-09T19:57:20.979Z,94226.05
2017-07-09T19:59:49.065Z,94233.52
2017-07-09T20:02:16.838Z,94254.28
2017-07-09T20:04:44.767Z,94263.98
2017-07-09T20:07:12.569Z,94270.66
2017-07-09T20:09:40.432Z,94269.97
2017-07-09T20:12:08.347Z,94250.62
2017-07-09T20:14:36.214Z,94236.55
2017-07-09T20:17:04.000Z,94226.03
2017-07-09T20:19:31.782Z,94226.47
2017-07-09T20:21:59.591Z,94222.73
2017-07-09T20:24:27.337Z,94216.19
2017-07-09T20:26:55.087Z,94201.04
2017-07-09T20:29:22.811Z,94205.41
2017-07-09T20:31:50.743Z,94200.85
2017-07-09T20:34:18.505Z,94201.61
2017-07-09T20:36:46.237Z,94206.61
2017-07-09T20:39:14.046Z,94215.67
2017-07-09T20:41:41.997Z,94210.37
2017-07-09T20:44:10.309Z,94218.50
2017-07-09T20:46:38.148Z,94235.75
2017-07-09T20:49:05.860Z,94245.45
2017-07-09T20:51:33.694Z,94262.45
2017-07-09T20:54:01.488Z,94273.05
2017-07-09T20:56:30.375Z,94286.63
2017-07-09T20:58:58.136Z,94281.12
2017-07-09T21:01:26.017Z,94276.91
2017-07-09T21:03:53.833Z,94281.85
2017-07-09T21:06:21.545Z,94279.11
2017-07-09T21:08:49.329Z,94282.51
2017-07-09T21:11:17.126Z,94278.35
2017-07-09T21:13:44.865Z,94271.67
2017-07-09T21:16:12.675Z,94259.31
2017-07-09T21:18:40.431Z,94245.34
2017-07-09T21:21:08.136Z,94218.80
2017-07-09T21:23:35.973Z,94204.51
2017-07-09T21:26:03.777Z,94192.60
2017-07-09T21:28:31.572Z,94160.55
2017-07-09T21:30:59.332Z,94157.33
2017-07-09T21:33:27.055Z,94151.04
2017-07-09T21:35:54.800Z,94140.34
2017-07-09T21:38:22.625Z,94139.71
2017-07-09T21:40:50.328Z,94153.61
2017-07-09T21:43:18.090Z,94152.19
2017-07-09T21:45:45.914Z,94155.44
2017-07-09T21:48:14.143Z,94154.14
2017-07-09T21:50:42.615Z,94151.33
2017-07-09T21:53:10.381Z,94145.25
2017-07-09T21:55:38.196Z,94145.91
2017-07-09T21:58:05.948Z,94143.81
2017-07-09T22:00:33.701Z,94154.28
2017-07-09T22:03:01.434Z,94169.48
2017-07-09T22:05:29.190Z,94165.52
2017-07-09T22:07:56.897Z,94164.95
2017-07-09T22:10:24.640Z,94175.89
2017-07-09T22:12:53.442Z,94182.14
2017-07-09T22:15:21.198Z,94179.05
2017-07-09T22:17:48.901Z,94156.59
2017-07-09T22:20:16.661Z,94116.22
2017-07-09T22:22:44.443Z,94093.17
2017-07-09T22:25:12.246Z,94090.55
2017-07-09T22:27:39.959Z,94086.22
2017-07-09T22:30:07.718Z,94081.72
2017-07-09T22:32:35.473Z,94073.00
2017-07-09T22:35:03.266Z,94066.53
2017-07-09T22:37:30.972Z,94071.83
2017-07-09T22:39:58.730Z,94079.05
2017-07-09T22:42:26.510Z,94085.03
2017-07-09T22:44:54.249Z,94080.81
2017-07-09T22:47:22.009Z,94073.67
2017-07-09T22:49:49.700Z,94065.47
2017-07-09T22:52:17.501Z,94063.02
2017-07-09T22:54:45.566Z,94056.14
2017-07-09T22:57:13.273Z,94064.50
2017-07-09T22:59:40.984Z,94060.32
2017-07-09T23:02:09.192Z,94059.36
2017-07-09T23:04:36.908Z,94051.56
2017-07-09T23:07:04.590Z,94056.66
2017-07-09T23:09:32.371Z,94056.27
2017-07-09T23:12:00.263Z,94046.72
2017-07-09T23:14:27.973Z,94045.33
2017-07-09T23:16:55.658Z,94051.18
2017-07-09T23:19:23.447Z,94045.63
2017-07-09T23:21:51.215Z,94048.37
2017-07-09T23:24:18.958Z,94043.39
2017-07-09T23:26:46.809Z,94031.23
2017-07-09T23:29:14.688Z,94025.37
2017-07-09T23:31:42.467Z,94026.67
2017-07-09T23:34:10.253Z,94017.52
2017-07-09T23:36:38.095Z,94017.98
2017-07-09T23:39:05.790Z,94014.78
2017-07-09T23:41:33.519Z,94009.92
2017-07-09T23:44:01.271Z,94003.70
2017-07-09T23:46:28.981Z,94008.36
2017-07-09T23:48:56.806Z,94004.53
2017-07-09T23:51:24.514Z,94001.01
2017-07-09T23:53:52.219Z,94002.92
2017-07-09T23:56:20.054Z,94001.42
2017-07-09T23:58:47.768Z,93997.53
